Time;durP1;ratioP1;P1;durP2;ratioP2;P2;SDS_P1;SDS_P2;PMS_P1;PMS_P2;Temp;Humidity;BMP_temperature;BMP_pressure;BME280_temperature;BME280_humidity;BME280_pressure;Samples;Min_cycle;Max_cycle;Signal;HPM_P1;HPM_P2
2023/09/09 00:01:40;;;;;;;7.00;3.00;;;;;;;18.47;50.62;100325.67;107952;1253;73150;-66
2023/09/09 00:04:08;;;;;;;7.60;3.00;;;;;;;18.54;50.45;100330.30;107936;1253;61753;-64
2023/09/09 00:06:36;;;;;;;8.50;2.90;;;;;;;18.56;50.23;100329.48;108049;1258;60374;-66
2023/09/09 00:09:04;;;;;;;5.80;2.90;;;;;;;18.46;50.34;100331.58;108039;1253;72610;-65
2023/09/09 00:11:32;;;;;;;9.30;3.10;;;;;;;18.32;50.49;100331.10;108094;1253;70846;-65
2023/09/09 00:13:59;;;;;;;5.60;2.70;;;;;;;18.37;50.55;100330.73;108032;1253;71617;-68
2023/09/09 00:16:32;;;;;;;8.40;2.90;;;;;;;18.14;51.15;100331.20;108024;1255;60483;-67
2023/09/09 00:19:00;;;;;;;8.30;3.20;;;;;;;18.19;51.21;100325.73;107999;1258;60429;-67
2023/09/09 00:21:27;;;;;;;7.10;2.80;;;;;;;18.18;51.19;100326.47;107987;1253;72638;-66
2023/09/09 00:23:54;;;;;;;9.00;2.90;;;;;;;18.19;51.19;100323.88;108029;1253;70556;-67
2023/09/09 00:26:22;;;;;;;6.80;2.80;;;;;;;18.19;51.22;100331.38;108088;1256;72652;-65
2023/09/09 00:28:49;;;;;;;5.60;3.10;;;;;;;18.25;51.22;100335.45;108185;1253;61970;-66
2023/09/09 00:31:17;;;;;;;7.00;2.70;;;;;;;18.29;51.26;100333.43;108184;1254;59985;-66
2023/09/09 00:33:44;;;;;;;8.30;3.10;;;;;;;18.49;50.79;100332.82;108148;1251;74297;-66
2023/09/09 00:36:11;;;;;;;6.50;2.80;;;;;;;18.62;50.48;100325.14;108211;1254;67729;-65
2023/09/09 00:38:39;;;;;;;9.10;3.20;;;;;;;18.67;50.44;100320.75;108151;1251;72864;-65
2023/09/09 00:41:17;;;;;;;8.90;3.50;;;;;;;18.70;50.52;100317.20;108064;1251;62188;-68
2023/09/09 00:43:47;;;;;;;6.70;2.50;;;;;;;18.53;50.65;100318.98;108051;1253;60371;-65
2023/09/09 00:46:15;;;;;;;6.60;2.90;;;;;;;18.50;50.62;100323.86;108219;1251;73857;-66
2023/09/09 00:48:43;;;;;;;6.80;2.70;;;;;;;18.56;50.43;100325.04;108154;1256;69045;-67
2023/09/09 00:51:11;;;;;;;6.20;2.90;;;;;;;18.41;50.63;100318.20;108042;1254;73239;-65
2023/09/09 00:53:39;;;;;;;10.20;3.10;;;;;;;18.51;50.61;100316.27;108159;1253;61716;-66
2023/09/09 00:56:07;;;;;;;5.70;2.90;;;;;;;18.64;50.25;100315.06;108326;1252;60370;-66
2023/09/09 00:58:34;;;;;;;5.10;2.50;;;;;;;18.66;50.17;100314.55;108112;1251;73676;-65
2023/09/09 01:01:05;;;;;;;7.80;3.00;;;;;;;18.60;50.38;100307.67;108174;1256;70302;-66
2023/09/09 01:03:32;;;;;;;7.10;2.90;;;;;;;18.58;50.39;100305.31;108168;1256;71465;-67
2023/09/09 01:06:00;;;;;;;8.80;3.00;;;;;;;18.11;51.23;100312.74;108205;1254;60560;-65
2023/09/09 01:08:29;;;;;;;11.00;3.10;;;;;;;18.03;51.56;100307.59;108238;1254;60489;-66
2023/09/09 01:10:56;;;;;;;5.90;3.00;;;;;;;18.07;51.65;100307.15;108157;1251;72569;-65
2023/09/09 01:13:24;;;;;;;7.70;3.10;;;;;;;18.11;51.60;100306.53;108253;1252;69285;-66
2023/09/09 01:15:52;;;;;;;7.80;3.40;;;;;;;18.32;51.14;100306.15;108117;1254;71669;-66
2023/09/09 01:18:19;;;;;;;5.40;2.90;;;;;;;18.40;50.89;100306.05;108240;1255;60389;-66
2023/09/09 01:20:59;;;;;;;6.20;3.00;;;;;;;18.35;51.01;100305.63;108104;1251;60128;-66
2023/09/09 01:23:27;;;;;;;5.70;2.90;;;;;;;18.38;50.89;100308.84;108233;1256;75883;-66
2023/09/09 01:25:54;;;;;;;5.90;2.90;;;;;;;18.25;51.13;100306.87;108191;1253;70380;-66
2023/09/09 01:28:22;;;;;;;8.10;2.80;;;;;;;18.24;51.21;100303.72;108028;1257;72448;-66
2023/09/09 01:30:50;;;;;;;9.60;2.80;;;;;;;18.18;51.34;100304.83;108112;1256;61706;-66
2023/09/09 01:33:18;;;;;;;8.10;3.00;;;;;;;18.09;51.63;100305.92;107957;1254;59990;-65
2023/09/09 01:35:46;;;;;;;8.90;3.40;;;;;;;17.98;51.96;100307.55;107950;1254;73924;-67
2023/09/09 01:38:14;;;;;;;8.60;3.20;;;;;;;18.00;51.98;100312.94;107997;1253;70734;-67
2023/09/09 01:40:41;;;;;;;11.10;3.20;;;;;;;18.04;51.81;100312.32;108023;1258;72401;-66
2023/09/09 01:43:09;;;;;;;6.40;2.80;;;;;;;17.92;52.25;100315.06;108107;1254;60405;-67
2023/09/09 01:45:37;;;;;;;7.20;2.60;;;;;;;17.81;52.56;100321.23;108103;1253;60068;-66
2023/09/09 01:48:05;;;;;;;6.50;3.30;;;;;;;17.79;52.67;100320.30;108090;1253;72129;-66
2023/09/09 01:50:34;;;;;;;9.70;3.30;;;;;;;17.67;52.78;100323.20;108077;1257;70739;-67
2023/09/09 01:53:02;;;;;;;8.20;3.10;;;;;;;17.51;53.17;100326.14;108120;1254;73119;-66
2023/09/09 01:55:30;;;;;;;5.00;2.50;;;;;;;17.49;53.05;100328.79;108133;1257;60466;-66
2023/09/09 01:57:57;;;;;;;5.70;3.40;;;;;;;17.47;53.19;100330.50;108104;1252;60364;-66
2023/09/09 02:00:27;;;;;;;7.00;2.80;;;;;;;17.49;53.18;100328.72;108035;1254;73829;-66
2023/09/09 02:02:55;;;;;;;7.40;3.00;;;;;;;17.53;53.22;100325.69;108054;1257;70537;-66
2023/09/09 02:05:23;;;;;;;9.00;3.10;;;;;;;17.58;53.23;100324.64;108080;1254;71021;-65
2023/09/09 02:07:50;;;;;;;5.70;2.70;;;;;;;17.76;52.72;100317.45;108058;1253;61677;-66
2023/09/09 02:10:18;;;;;;;8.60;3.30;;;;;;;17.73;52.90;100321.91;108054;1253;60444;-65
2023/09/09 02:12:45;;;;;;;10.40;3.00;;;;;;;17.83;52.45;100324.70;108153;1254;73476;-66
2023/09/09 02:15:13;;;;;;;7.80;2.80;;;;;;;17.38;53.37;100325.51;108036;1257;70160;-66
2023/09/09 02:17:41;;;;;;;9.00;3.60;;;;;;;17.27;53.85;100324.60;108102;1254;71271;-66
2023/09/09 02:20:09;;;;;;;7.90;3.20;;;;;;;17.38;53.51;100330.66;108066;1254;60922;-66
2023/09/09 02:22:37;;;;;;;7.70;3.40;;;;;;;17.44;53.31;100330.34;108210;1254;59061;-67
2023/09/09 02:25:07;;;;;;;9.80;3.00;;;;;;;17.36;53.58;100332.75;108082;1254;73124;-66
2023/09/09 02:27:35;;;;;;;9.50;3.30;;;;;;;17.26;53.68;100329.25;108165;1254;68708;-67
2023/09/09 02:30:04;;;;;;;7.20;3.00;;;;;;;17.15;53.96;100333.67;107922;1257;72165;-66
2023/09/09 02:32:31;;;;;;;8.80;3.40;;;;;;;17.16;54.02;100331.69;108059;1258;60399;-66
2023/09/09 02:34:59;;;;;;;10.60;3.00;;;;;;;17.25;53.88;100336.98;107916;1254;60292;-67
2023/09/09 02:37:27;;;;;;;11.20;3.70;;;;;;;17.18;53.91;100332.80;108148;1254;73786;-66
2023/09/09 02:39:54;;;;;;;7.00;3.10;;;;;;;16.93;54.58;100335.36;107937;1258;70428;-66
2023/09/09 02:42:23;;;;;;;11.20;3.30;;;;;;;16.89;54.78;100335.73;108107;1254;72733;-66
2023/09/09 02:44:50;;;;;;;7.90;3.00;;;;;;;16.91;54.59;100338.49;108104;1253;61847;-66
2023/09/09 02:47:18;;;;;;;8.30;3.30;;;;;;;16.87;54.75;100343.70;108020;1260;60293;-66
2023/09/09 02:49:46;;;;;;;9.80;3.40;;;;;;;16.93;54.79;100347.59;108183;1253;73849;-66
2023/09/09 02:52:14;;;;;;;6.40;3.30;;;;;;;16.90;54.94;100345.79;108107;1257;68697;-67
2023/09/09 02:54:41;;;;;;;8.50;3.40;;;;;;;16.87;55.13;100350.08;108084;1253;72788;-66
2023/09/09 02:57:08;;;;;;;7.90;3.30;;;;;;;16.88;55.25;100348.97;109328;1254;63897;-66
2023/09/09 02:59:36;;;;;;;7.90;2.80;;;;;;;16.88;55.26;100352.33;109349;1252;59115;-66
2023/09/09 03:02:05;;;;;;;5.90;2.60;;;;;;;16.95;55.42;100352.92;109096;1258;73856;-66
2023/09/09 03:04:32;;;;;;;13.20;3.20;;;;;;;16.98;55.26;100352.98;109136;1254;70499;-66
2023/09/09 03:07:00;;;;;;;8.60;3.00;;;;;;;16.98;55.32;100356.72;109168;1253;71396;-67
2023/09/09 03:09:29;;;;;;;10.10;3.10;;;;;;;16.94;55.29;100358.17;109234;1254;60435;-65
2023/09/09 03:11:57;;;;;;;5.70;3.00;;;;;;;16.92;55.11;100363.28;109193;1253;59020;-65
2023/09/09 03:14:24;;;;;;;8.70;3.30;;;;;;;16.94;55.08;100367.02;109206;1254;76154;-66
2023/09/09 03:16:52;;;;;;;8.40;3.00;;;;;;;17.12;54.76;100377.35;109207;1253;70112;-66
2023/09/09 03:19:19;;;;;;;5.70;3.40;;;;;;;16.88;55.20;100375.37;109008;1254;71756;-66
2023/09/09 03:21:47;;;;;;;6.60;3.10;;;;;;;17.02;55.03;100375.13;109054;1256;61743;-66
2023/09/09 03:24:14;;;;;;;9.90;3.30;;;;;;;17.10;54.67;100374.45;109304;1253;58991;-66
2023/09/09 03:26:42;;;;;;;5.40;2.80;;;;;;;17.15;54.62;100376.59;109340;1251;74461;-67
2023/09/09 03:29:09;;;;;;;9.70;3.20;;;;;;;17.12;54.83;100380.37;109318;1251;70398;-65
2023/09/09 03:35:17;;;;;;;5.60;3.00;;;;;;;17.10;54.70;100380.29;104590;1292;603453;-65
2023/09/09 03:37:44;;;;;;;7.40;3.50;;;;;;;17.02;54.93;100385.94;107228;1267;59089;-66
2023/09/09 03:40:11;;;;;;;8.00;3.60;;;;;;;17.02;54.88;100389.64;107298;1266;60080;-66
2023/09/09 03:42:39;;;;;;;3.70;2.50;;;;;;;17.13;54.65;100382.96;107773;1260;72070;-66
2023/09/09 03:45:06;;;;;;;8.00;3.50;;;;;;;17.35;54.18;100382.11;107612;1260;70392;-66
2023/09/09 03:47:33;;;;;;;9.60;3.80;;;;;;;17.38;53.99;100384.62;107445;1257;191772;-67
2023/09/09 03:50:00;;;;;;;11.90;3.50;;;;;;;17.33;54.08;100384.55;107525;1257;61757;-66
2023/09/09 03:52:27;;;;;;;11.70;3.80;;;;;;;17.20;54.37;100385.54;107694;1257;59300;-66
2023/09/09 03:54:54;;;;;;;8.70;2.90;;;;;;;17.18;54.45;100384.81;107686;1257;70700;-67
2023/09/09 03:57:20;;;;;;;8.40;3.60;;;;;;;17.10;54.67;100394.33;107613;1257;70330;-66
2023/09/09 03:59:47;;;;;;;6.50;3.00;;;;;;;17.20;54.59;100396.91;107719;1257;59730;-66
2023/09/09 04:02:13;;;;;;;8.40;3.30;;;;;;;17.48;54.67;100399.42;107866;1262;59669;-66
2023/09/09 04:04:41;;;;;;;9.90;3.40;;;;;;;17.91;54.11;100398.44;107835;1257;60193;-68
2023/09/09 04:07:09;;;;;;;8.20;3.20;;;;;;;18.35;53.40;100394.65;107999;1256;72976;-66
2023/09/09 04:09:40;;;;;;;11.30;3.20;;;;;;;18.57;52.98;100393.08;107973;1257;69161;-66
2023/09/09 04:12:08;;;;;;;12.80;3.90;;;;;;;18.73;52.77;100394.67;107955;1255;71451;-66
2023/09/09 04:14:39;;;;;;;7.10;3.50;;;;;;;19.35;51.68;100387.45;107903;1256;62287;-67
2023/09/09 04:17:06;;;;;;;9.20;3.40;;;;;;;20.05;49.95;100388.59;107940;1257;59524;-67
2023/09/09 04:19:33;;;;;;;5.20;2.80;;;;;;;20.37;49.06;100385.36;107884;1257;72898;-66
2023/09/09 04:22:00;;;;;;;9.50;3.20;;;;;;;20.66;48.60;100383.96;107869;1257;70216;-66
2023/09/09 04:24:27;;;;;;;6.30;3.00;;;;;;;21.07;47.50;100388.02;107885;1256;73299;-66
2023/09/09 04:28:28;;;;;;;9.50;3.20;;;;;;;20.40;49.25;100388.63;104861;1289;613560;-67
2023/09/09 04:30:55;;;;;;;5.30;2.50;;;;;;;21.65;45.97;100400.50;107388;1267;59227;-67
2023/09/09 04:33:23;;;;;;;4.80;2.60;;;;;;;22.08;45.04;100402.45;107312;1266;59697;-67
2023/09/09 04:35:51;;;;;;;6.60;2.90;;;;;;;22.82;43.44;100398.07;107340;1267;72260;-67
2023/09/09 04:38:19;;;;;;;5.50;3.10;;;;;;;23.25;41.87;100393.98;107279;1267;70103;-66
2023/09/09 04:40:46;;;;;;;11.50;3.00;;;;;;;23.66;41.16;100397.92;107240;1264;178438;-67
2023/09/09 04:43:13;;;;;;;8.20;2.90;;;;;;;24.20;39.91;100395.69;108335;1257;60523;-66
2023/09/09 04:45:39;;;;;;;6.30;2.30;;;;;;;24.51;38.89;100398.85;108195;1251;59736;-67
2023/09/09 04:48:06;;;;;;;9.60;2.70;;;;;;;24.66;37.76;100396.98;108278;1251;72267;-67
2023/09/09 04:50:33;;;;;;;7.90;3.10;;;;;;;24.81;37.30;100393.52;108285;1251;70807;-67
2023/09/09 04:53:02;;;;;;;8.00;3.30;;;;;;;25.01;37.42;100400.65;108202;1251;72669;-67
2023/09/09 04:55:29;;;;;;;8.80;3.10;;;;;;;25.38;36.91;100403.48;108325;1251;60016;-67
2023/09/09 04:57:57;;;;;;;6.60;3.10;;;;;;;25.82;35.76;100408.86;108264;1257;60297;-67
2023/09/09 05:00:24;;;;;;;11.00;3.00;;;;;;;26.13;35.30;100409.39;108304;1251;72763;-67
2023/09/09 05:02:51;;;;;;;7.20;3.10;;;;;;;26.54;34.48;100410.28;108308;1251;70196;-66
2023/09/09 05:05:18;;;;;;;7.30;3.00;;;;;;;26.83;34.17;100412.42;108310;1251;71350;-66
2023/09/09 05:07:44;;;;;;;6.70;2.90;;;;;;;26.92;33.66;100406.63;108337;1256;60306;-67
2023/09/09 05:10:13;;;;;;;12.40;3.90;;;;;;;27.23;33.35;100411.63;108272;1255;59445;-67
2023/09/09 05:12:41;;;;;;;10.80;4.10;;;;;;;27.33;32.54;100421.03;108413;1251;72912;-66
2023/09/09 05:15:13;;;;;;;7.30;4.00;;;;;;;27.26;32.22;100426.65;108256;1251;70101;-67
2023/09/09 05:17:40;;;;;;;10.10;4.00;;;;;;;26.72;32.70;100430.08;108249;1257;72460;-67
2023/09/09 05:20:07;;;;;;;7.80;4.20;;;;;;;26.04;33.51;100432.67;108232;1251;60159;-67
2023/09/09 05:22:34;;;;;;;10.50;3.60;;;;;;;25.43;34.49;100436.80;108302;1257;60463;-66
2023/09/09 05:25:01;;;;;;;10.70;3.60;;;;;;;24.92;35.21;100438.91;108374;1256;73339;-66
2023/09/09 05:27:29;;;;;;;9.20;3.80;;;;;;;24.44;36.03;100445.54;108116;1251;70222;-66
2023/09/09 05:29:55;;;;;;;12.40;3.50;;;;;;;24.15;36.80;100447.48;108127;1256;73298;-66
2023/09/09 05:32:22;;;;;;;10.80;3.50;;;;;;;23.84;37.30;100452.89;108245;1252;59471;-66
2023/09/09 05:34:49;;;;;;;12.00;3.30;;;;;;;23.60;37.87;100462.84;108078;1259;60605;-66
2023/09/09 05:37:16;;;;;;;16.20;3.50;;;;;;;23.24;38.41;100460.33;108185;1251;72831;-66
2023/09/09 05:39:42;;;;;;;12.60;4.00;;;;;;;22.98;38.88;100466.48;108123;1254;69286;-67
2023/09/09 05:42:09;;;;;;;10.40;3.00;;;;;;;22.73;39.33;100470.12;108143;1254;72538;-66
2023/09/09 05:44:36;;;;;;;11.50;3.40;;;;;;;22.59;39.54;100467.14;108227;1254;59614;-66
2023/09/09 05:47:05;;;;;;;10.90;3.80;;;;;;;22.58;39.99;100470.14;108223;1252;60093;-67
2023/09/09 05:49:32;;;;;;;8.50;3.30;;;;;;;22.81;40.01;100465.84;108149;1256;72829;-67
2023/09/09 05:52:07;;;;;;;7.60;3.10;;;;;;;23.33;39.46;100467.05;108187;1253;69394;-67
2023/09/09 05:54:34;;;;;;;8.60;3.00;;;;;;;24.14;38.43;100468.89;108230;1256;72636;-68
2023/09/09 05:57:01;;;;;;;9.70;3.10;;;;;;;25.19;36.99;100464.40;108135;1254;60323;-68
2023/09/09 05:59:28;;;;;;;12.50;4.20;;;;;;;26.01;35.34;100463.46;108230;1254;60284;-67
2023/09/09 06:01:55;;;;;;;9.20;3.40;;;;;;;26.67;33.82;100469.27;108179;1256;73603;-67
2023/09/09 06:04:23;;;;;;;10.20;3.70;;;;;;;27.02;33.01;100471.38;108256;1255;70790;-68
2023/09/09 06:06:50;;;;;;;6.20;3.00;;;;;;;27.40;32.59;100473.46;108184;1254;72647;-68
2023/09/09 06:09:19;;;;;;;9.30;3.30;;;;;;;27.93;31.83;100471.50;108193;1257;60209;-70
2023/09/09 06:11:50;;;;;;;6.20;2.90;;;;;;;28.21;30.96;100473.88;108295;1252;60399;-68
2023/09/09 06:14:17;;;;;;;7.70;3.30;;;;;;;28.59;30.92;100478.05;108318;1254;73861;-69
2023/09/09 06:16:44;;;;;;;8.10;2.80;;;;;;;29.12;30.46;100478.35;108185;1254;70207;-68
2023/09/09 06:19:10;;;;;;;14.20;3.30;;;;;;;29.48;29.42;100474.09;108170;1254;72662;-67
2023/09/09 06:21:38;;;;;;;8.40;3.20;;;;;;;29.74;28.93;100479.90;108238;1254;60031;-67
2023/09/09 06:24:07;;;;;;;13.10;2.70;;;;;;;29.85;28.86;100482.31;108178;1256;60107;-67
2023/09/09 06:26:34;;;;;;;7.80;2.60;;;;;;;30.14;27.97;100483.48;108106;1255;72832;-68
2023/09/09 06:29:01;;;;;;;9.50;2.60;;;;;;;30.39;27.66;100491.02;108273;1257;70353;-67
2023/09/09 06:31:28;;;;;;;6.80;2.30;;;;;;;30.71;27.22;100495.63;108159;1255;73464;-68
2023/09/09 06:33:56;;;;;;;6.40;2.20;;;;;;;30.79;26.62;100499.05;108089;1254;60360;-67
2023/09/09 06:36:23;;;;;;;4.40;2.30;;;;;;;30.59;26.56;100503.27;108175;1257;59968;-67
2023/09/09 06:38:49;;;;;;;8.30;2.40;;;;;;;30.43;26.95;100504.86;108105;1254;73150;-68
2023/09/09 06:41:16;;;;;;;5.10;1.90;;;;;;;30.56;26.85;100505.45;108178;1256;70037;-69
2023/09/09 06:43:43;;;;;;;11.90;2.50;;;;;;;30.70;26.76;100506.54;108190;1253;73131;-68
2023/09/09 06:46:10;;;;;;;6.60;2.20;;;;;;;30.89;26.36;100509.27;108240;1254;60294;-67
2023/09/09 06:48:37;;;;;;;6.70;2.30;;;;;;;31.09;26.15;100517.67;108195;1255;60139;-67
2023/09/09 06:51:03;;;;;;;3.60;1.90;;;;;;;31.17;25.75;100514.85;108201;1254;73132;-68
2023/09/09 06:53:30;;;;;;;11.40;2.40;;;;;;;31.39;25.70;100519.77;108194;1257;70598;-66
2023/09/09 06:55:57;;;;;;;5.40;1.60;;;;;;;31.41;25.33;100521.41;108172;1254;72587;-69
2023/09/09 06:58:23;;;;;;;8.10;2.10;;;;;;;31.72;25.09;100518.65;108161;1256;59513;-68
2023/09/09 07:00:51;;;;;;;9.80;1.80;;;;;;;32.00;25.02;100520.97;108225;1254;60364;-67
2023/09/09 07:03:20;;;;;;;21.60;2.20;;;;;;;32.28;24.50;100523.30;108191;1257;73187;-69
2023/09/09 07:05:47;;;;;;;6.90;2.10;;;;;;;32.35;23.92;100524.07;108175;1256;70066;-66
2023/09/09 07:08:13;;;;;;;7.40;2.00;;;;;;;32.59;23.97;100524.59;108135;1254;59378;-67
2023/09/09 07:10:48;;;;;;;4.20;1.90;;;;;;;32.77;23.26;100528.34;108148;1254;59628;-68
2023/09/09 07:13:15;;;;;;;5.90;2.00;;;;;;;32.48;23.74;100532.29;108217;1254;60420;-67
2023/09/09 07:15:42;;;;;;;5.70;2.10;;;;;;;32.66;23.83;100531.48;108165;1254;72823;-68
2023/09/09 07:18:08;;;;;;;4.80;2.10;;;;;;;33.20;23.27;100536.20;108203;1254;70102;-67
2023/09/09 07:20:35;;;;;;;6.30;1.70;;;;;;;33.56;22.79;100534.53;108164;1257;72457;-68
2023/09/09 07:23:02;;;;;;;3.40;1.70;;;;;;;33.56;22.27;100535.49;108125;1254;60268;-66
2023/09/09 07:25:29;;;;;;;6.80;1.80;;;;;;;33.39;22.38;100542.80;108136;1254;60238;-67
2023/09/09 07:27:56;;;;;;;7.60;1.30;;;;;;;33.11;22.72;100544.10;108185;1254;73054;-68
2023/09/09 07:30:22;;;;;;;4.30;1.60;;;;;;;33.01;22.44;100547.37;108129;1253;59564;-68
2023/09/09 07:32:49;;;;;;;4.10;1.70;;;;;;;33.26;22.83;100545.42;108140;1255;73021;-67
2023/09/09 07:35:16;;;;;;;6.80;1.60;;;;;;;33.80;22.47;100540.05;108148;1257;58964;-68
2023/09/09 07:37:42;;;;;;;5.40;1.50;;;;;;;34.42;21.58;100541.13;108168;1254;59512;-67
2023/09/09 07:40:10;;;;;;;3.90;1.30;;;;;;;34.91;21.05;100543.14;108132;1256;64284;-68
2023/09/09 07:42:37;;;;;;;4.90;1.60;;;;;;;35.07;20.71;100548.66;108172;1254;61592;-67
2023/09/09 07:45:04;;;;;;;3.80;1.20;;;;;;;34.96;20.23;100560.67;108137;1254;64055;-67
2023/09/09 07:47:31;;;;;;;8.80;1.70;;;;;;;34.63;20.43;100562.73;108182;1256;59383;-67
2023/09/09 07:49:58;;;;;;;5.60;1.20;;;;;;;34.74;20.17;100559.89;108165;1254;59368;-68
2023/09/09 07:52:24;;;;;;;4.00;1.50;;;;;;;34.82;20.12;100562.90;108152;1254;64429;-68
2023/09/09 07:54:52;;;;;;;3.80;1.50;;;;;;;35.12;19.85;100565.90;108170;1254;61651;-68
2023/09/09 07:57:18;;;;;;;3.30;1.10;;;;;;;35.11;19.49;100563.58;108229;1254;63877;-69
2023/09/09 07:59:45;;;;;;;7.90;1.70;;;;;;;34.85;19.61;100568.39;108115;1254;59443;-68
2023/09/09 08:02:13;;;;;;;5.00;1.50;;;;;;;34.65;19.84;100573.20;108198;1254;59516;-68
2023/09/09 08:04:39;;;;;;;5.00;1.60;;;;;;;34.68;19.35;100575.83;108218;1257;62947;-67
2023/09/09 08:07:06;;;;;;;5.90;1.80;;;;;;;34.58;19.56;100572.77;108185;1256;61362;-67
2023/09/09 08:09:33;;;;;;;7.50;1.60;;;;;;;34.64;20.04;100569.15;108175;1254;72402;-67
2023/09/09 08:12:00;;;;;;;4.00;1.50;;;;;;;35.04;20.12;100563.14;108284;1257;59718;-68
2023/09/09 08:14:26;;;;;;;13.20;2.00;;;;;;;35.41;19.50;100568.14;108182;1254;59516;-68
2023/09/09 08:16:55;;;;;;;4.10;1.30;;;;;;;35.60;19.31;100571.04;108169;1257;64234;-68
2023/09/09 08:19:22;;;;;;;7.30;1.70;;;;;;;35.40;18.63;100572.02;108280;1254;61642;-67
2023/09/09 08:21:49;;;;;;;8.70;1.60;;;;;;;34.71;19.12;100571.93;108135;1254;64063;-68
2023/09/09 08:24:15;;;;;;;4.80;1.60;;;;;;;34.26;19.45;100569.09;108192;1253;59484;-68
2023/09/09 08:26:41;;;;;;;5.00;1.60;;;;;;;33.56;19.92;100578.46;108271;1254;59566;-68
2023/09/09 08:29:08;;;;;;;6.30;1.90;;;;;;;32.99;20.80;100583.27;108335;1252;72838;-67
2023/09/09 08:31:35;;;;;;;4.90;1.80;;;;;;;33.02;20.92;100582.11;108301;1254;59637;-68
2023/09/09 08:34:02;;;;;;;5.50;1.70;;;;;;;32.92;21.03;100586.48;108378;1254;72607;-69
2023/09/09 08:36:29;;;;;;;7.00;1.60;;;;;;;32.59;21.44;100590.33;108296;1251;60340;-67
2023/09/09 08:38:57;;;;;;;6.60;2.30;;;;;;;31.71;21.92;100593.20;108291;1254;60319;-68
2023/09/09 08:41:47;;;;;;;4.10;1.70;;;;;;;31.14;22.89;100597.98;108306;1255;73539;-68
2023/09/09 08:44:23;;;;;;;6.70;1.60;;;;;;;30.90;23.01;100592.77;108200;1254;69978;-69
2023/09/09 08:46:49;;;;;;;6.40;1.50;;;;;;;30.74;23.07;100593.10;108235;1252;72660;-67
2023/09/09 08:49:15;;;;;;;5.40;1.80;;;;;;;30.67;23.41;100592.83;108268;1254;60280;-68
2023/09/09 08:51:48;;;;;;;6.10;1.80;;;;;;;30.70;23.75;100595.70;108111;1254;60432;-67
2023/09/09 08:54:15;;;;;;;6.00;1.90;;;;;;;30.80;23.42;100595.32;108115;1259;73587;-68
2023/09/09 08:56:41;;;;;;;4.00;1.30;;;;;;;30.66;23.49;100600.52;108134;1254;70043;-68
2023/09/09 08:59:08;;;;;;;4.30;1.50;;;;;;;30.94;23.46;100600.27;108191;1252;72763;-68
2023/09/09 09:01:35;;;;;;;3.50;1.50;;;;;;;31.21;23.29;100597.79;108202;1251;60231;-68
2023/09/09 09:04:02;;;;;;;6.00;1.50;;;;;;;31.48;23.07;100598.48;108266;1253;60152;-67
2023/09/09 09:06:29;;;;;;;6.60;1.80;;;;;;;31.61;22.75;100599.17;108197;1254;72462;-67
2023/09/09 09:08:56;;;;;;;4.30;1.50;;;;;;;32.04;22.74;100602.28;108154;1254;60351;-68
2023/09/09 09:11:23;;;;;;;2.80;1.20;;;;;;;32.55;22.39;100595.84;108246;1254;72846;-68
2023/09/09 09:13:50;;;;;;;7.80;1.70;;;;;;;33.25;21.41;100597.80;108307;1254;60549;-67
2023/09/09 09:16:18;;;;;;;10.40;2.10;;;;;;;33.62;20.89;100605.77;108230;1253;60324;-67
2023/09/09 09:18:44;;;;;;;3.90;1.60;;;;;;;33.41;20.85;100598.95;108232;1253;65306;-68
2023/09/09 09:21:11;;;;;;;6.70;1.40;;;;;;;33.25;21.23;100607.13;108250;1254;62791;-68
2023/09/09 09:23:45;;;;;;;3.70;1.30;;;;;;;33.05;20.98;100607.56;108259;1255;64311;-68
2023/09/09 09:26:24;;;;;;;11.60;1.60;;;;;;;32.87;20.91;100606.79;108298;1254;59663;-67
2023/09/09 09:28:51;;;;;;;4.50;1.70;;;;;;;32.88;21.36;100606.67;108269;1254;60434;-68
2023/09/09 09:31:21;;;;;;;10.30;2.00;;;;;;;32.82;21.21;100606.06;108276;1253;73865;-68
2023/09/09 09:33:50;;;;;;;2.90;1.20;;;;;;;32.51;21.58;100611.52;108263;1254;61758;-67
2023/09/09 09:36:18;;;;;;;7.90;1.60;;;;;;;32.17;22.14;100614.70;108235;1254;71377;-68
2023/09/09 09:38:45;;;;;;;42.90;3.70;;;;;;;31.92;22.44;100615.98;108290;1254;60169;-68
2023/09/09 09:41:11;;;;;;;10.80;1.70;;;;;;;31.71;22.63;100619.88;108192;1254;60401;-67
2023/09/09 09:43:38;;;;;;;9.10;3.30;;;;;;;31.73;22.06;100623.27;108294;1254;60459;-66
2023/09/09 09:46:18;;;;;;;7.00;1.70;;;;;;;31.93;21.88;100619.80;108041;1254;70411;-67
2023/09/09 09:48:44;;;;;;;4.90;0.90;;;;;;;32.14;22.13;100619.55;108223;1253;72447;-67
2023/09/09 09:51:11;;;;;;;6.60;1.40;;;;;;;32.53;21.46;100615.36;108213;1253;60540;-67
2023/09/09 09:53:56;;;;;;;6.70;1.30;;;;;;;32.89;20.71;100612.11;108242;1253;60427;-67
2023/09/09 09:56:22;;;;;;;7.60;1.70;;;;;;;33.28;20.24;100617.54;108242;1255;72398;-67
2023/09/09 09:58:50;;;;;;;7.70;2.60;;;;;;;33.44;19.93;100613.96;108259;1252;70256;-69
2023/09/09 10:01:16;;;;;;;7.20;1.60;;;;;;;33.20;20.55;100619.52;108217;1254;72386;-68
2023/09/09 10:03:48;;;;;;;5.80;2.30;;;;;;;33.16;20.49;100615.73;108218;1256;61188;-68
2023/09/09 10:06:18;;;;;;;7.90;1.70;;;;;;;33.42;20.24;100616.26;108252;1254;60255;-67
2023/09/09 10:09:04;;;;;;;5.70;1.50;;;;;;;33.51;20.04;100613.12;108247;1254;73932;-67
2023/09/09 10:11:34;;;;;;;3.40;1.00;;;;;;;33.66;20.33;100616.17;108291;1254;70859;-67
2023/09/09 10:14:14;;;;;;;3.40;1.10;;;;;;;33.98;20.05;100617.56;108313;1254;63889;-68
2023/09/09 10:16:43;;;;;;;7.10;1.30;;;;;;;34.46;19.55;100613.88;108312;1253;60357;-67
2023/09/09 10:19:13;;;;;;;9.90;1.30;;;;;;;34.87;19.09;100610.30;108225;1256;60370;-68
2023/09/09 10:21:40;;;;;;;7.40;1.40;;;;;;;35.15;18.43;100618.42;108183;1254;64436;-68
2023/09/09 10:24:09;;;;;;;2.20;1.10;;;;;;;34.83;18.49;100618.68;108326;1252;61556;-69
2023/09/09 10:26:36;;;;;;;5.00;1.00;;;;;;;34.43;18.79;100617.36;108157;1256;64259;-68
2023/09/09 10:29:03;;;;;;;4.30;1.20;;;;;;;34.24;18.94;100618.75;108178;1252;60480;-68
2023/09/09 10:31:30;;;;;;;9.00;1.50;;;;;;;34.12;19.19;100619.23;108346;1252;60396;-67
2023/09/09 10:33:56;;;;;;;5.80;1.00;;;;;;;34.28;18.99;100625.09;108282;1256;65090;-67
2023/09/09 10:36:24;;;;;;;7.20;1.00;;;;;;;34.38;18.81;100627.97;108207;1254;61706;-68
2023/09/09 10:38:53;;;;;;;2.40;1.00;;;;;;;34.36;18.65;100629.48;108243;1254;63992;-66
2023/09/09 10:41:21;;;;;;;6.20;1.10;;;;;;;34.36;18.76;100634.23;108262;1253;60532;-67
2023/09/09 10:43:48;;;;;;;2.50;0.90;;;;;;;34.40;18.78;100632.95;108160;1256;60312;-68
2023/09/09 10:46:14;;;;;;;5.10;1.40;;;;;;;34.44;18.42;100634.30;108278;1252;64882;-67
2023/09/09 10:48:44;;;;;;;3.30;1.00;;;;;;;34.40;18.44;100634.64;108198;1254;60255;-68
2023/09/09 10:51:13;;;;;;;7.00;1.10;;;;;;;34.04;18.70;100638.97;108343;1254;62556;-68
2023/09/09 10:53:39;;;;;;;3.00;1.10;;;;;;;33.90;19.27;100637.64;108246;1254;61004;-68
2023/09/09 10:56:27;;;;;;;5.30;1.20;;;;;;;34.07;19.19;100635.69;108264;1254;60310;-68
2023/09/09 10:58:53;;;;;;;4.10;1.10;;;;;;;34.27;18.74;100636.73;108351;1254;65281;-68
2023/09/09 11:01:23;;;;;;;5.90;1.10;;;;;;;34.22;18.92;100635.15;108306;1257;60225;-69
2023/09/09 11:03:51;;;;;;;2.70;0.90;;;;;;;34.15;18.88;100641.02;108277;1255;62448;-68
2023/09/09 11:06:24;;;;;;;6.10;1.10;;;;;;;33.73;18.86;100642.40;108230;1254;60325;-67
2023/09/09 11:08:55;;;;;;;4.00;1.20;;;;;;;33.12;19.46;100640.74;108200;1256;60620;-68
2023/09/09 11:11:37;;;;;;;2.70;0.70;;;;;;;33.05;19.39;100648.20;108266;1254;73573;-68
2023/09/09 11:14:05;;;;;;;3.80;0.90;;;;;;;33.24;19.00;100640.91;108254;1254;61497;-68
2023/09/09 11:16:38;;;;;;;3.60;0.80;;;;;;;33.19;18.90;100641.17;108232;1254;72682;-68
2023/09/09 11:19:06;;;;;;;4.10;1.10;;;;;;;33.34;18.54;100641.11;108220;1252;60283;-67
2023/09/09 11:21:34;;;;;;;5.90;1.30;;;;;;;33.56;18.57;100641.10;108256;1252;60053;-68
2023/09/09 11:24:02;;;;;;;3.90;0.80;;;;;;;33.69;18.22;100642.67;108255;1252;65053;-67
2023/09/09 11:26:29;;;;;;;4.00;1.20;;;;;;;33.58;18.57;100641.29;108235;1254;60494;-68